createdAt,value
2022-11-20T00:04:16.544Z,29.87
2022-11-20T00:09:19.225Z,26.93
2022-11-20T00:14:21.753Z,29.83
2022-11-20T00:19:24.194Z,29.90
2022-11-20T00:24:26.478Z,27.60
2022-11-20T00:29:28.761Z,26.57
2022-11-20T00:34:31.208Z,25.13
2022-11-20T00:39:33.689Z,27.30
2022-11-20T00:44:36.065Z,29.87
2022-11-20T00:49:38.329Z,26.63
2022-11-20T00:54:40.604Z,25.70
2022-11-20T00:59:42.912Z,26.37
2022-11-20T01:04:45.596Z,25.63
2022-11-20T01:09:47.874Z,26.03
2022-11-20T01:14:50.144Z,26.07
2022-11-20T01:19:52.509Z,26.37
2022-11-20T01:24:54.762Z,28.00
2022-11-20T01:30:01.114Z,27.17
2022-11-20T01:35:03.975Z,26.60
2022-11-20T01:40:06.822Z,25.57
2022-11-20T01:45:46.613Z,25.87
2022-11-20T01:50:49.702Z,27.13
2022-11-20T01:55:57.708Z,26.07
2022-11-20T02:01:00.461Z,25.27
2022-11-20T02:06:26.675Z,25.27
2022-11-20T02:11:31.304Z,25.03
2022-11-20T02:16:45.706Z,25.73
2022-11-20T02:21:57.371Z,25.33
2022-11-20T02:27:10.960Z,25.57
2022-11-20T02:32:25.348Z,25.50
2022-11-20T02:37:33.605Z,28.13
2022-11-20T02:42:37.250Z,27.30
2022-11-20T02:47:39.747Z,29.60
2022-11-20T02:52:42.422Z,28.00
2022-11-20T02:57:44.829Z,28.87
2022-11-20T03:02:47.606Z,27.90
2022-11-20T03:07:50.303Z,29.20
2022-11-20T03:12:56.475Z,28.87
2022-11-20T03:17:58.953Z,28.60
2022-11-20T03:23:01.771Z,29.23
2022-11-20T03:28:04.179Z,27.37
2022-11-20T03:33:06.583Z,26.87
2022-11-20T03:38:08.971Z,31.90
2022-11-20T03:43:11.360Z,30.07
2022-11-20T03:48:13.724Z,27.17
2022-11-20T03:53:16.753Z,29.00
2022-11-20T03:58:19.339Z,28.20
2022-11-20T04:03:21.997Z,29.87
2022-11-20T04:08:24.411Z,31.03
2022-11-20T04:13:26.768Z,26.30
2022-11-20T04:18:29.162Z,26.67
2022-11-20T04:23:31.620Z,25.13
2022-11-20T04:28:34.081Z,24.57
2022-11-20T04:33:37.847Z,25.93
2022-11-20T04:38:40.876Z,24.43
2022-11-20T04:43:48.532Z,25.07
2022-11-20T04:48:50.811Z,24.03
2022-11-20T04:53:53.157Z,24.70
2022-11-20T04:58:55.563Z,24.50
2022-11-20T05:03:57.927Z,25.50
2022-11-20T05:09:00.381Z,24.87
2022-11-20T05:14:02.750Z,24.47
2022-11-20T05:19:05.266Z,23.17
2022-11-20T05:24:08.063Z,24.77
2022-11-20T05:29:12.856Z,25.00
2022-11-20T05:34:15.329Z,24.73
2022-11-20T05:39:17.716Z,26.80
2022-11-20T05:44:20.004Z,23.63
2022-11-20T05:49:22.486Z,32.40
2022-11-20T05:54:24.987Z,32.50
2022-11-20T05:59:27.368Z,32.93
2022-11-20T06:04:29.827Z,34.47
2022-11-20T06:09:32.147Z,39.30
2022-11-20T06:14:34.792Z,37.50
2022-11-20T06:19:37.053Z,39.30
2022-11-20T06:24:39.289Z,40.00
2022-11-20T06:29:41.567Z,38.63
2022-11-20T06:34:44.542Z,35.77
2022-11-20T06:39:46.927Z,35.47
2022-11-20T06:44:49.261Z,33.50
2022-11-20T06:49:51.759Z,33.43
2022-11-20T06:54:54.777Z,32.60
2022-11-20T06:59:57.196Z,31.63
2022-11-20T07:04:59.454Z,25.40
2022-11-20T07:10:01.839Z,26.87
2022-11-20T07:15:04.662Z,25.27
2022-11-20T07:20:07.928Z,26.03
2022-11-20T07:25:12.065Z,25.27
2022-11-20T07:30:15.422Z,22.00
2022-11-20T07:35:18.045Z,23.57
2022-11-20T07:40:20.916Z,21.37
2022-11-20T07:45:24.963Z,19.97
2022-11-20T07:50:27.349Z,19.83
2022-11-20T07:55:29.616Z,18.33
2022-11-20T08:00:32.057Z,20.17
2022-11-20T08:05:34.635Z,18.53
2022-11-20T08:10:36.916Z,18.63
2022-11-20T08:15:40.700Z,20.63
2022-11-20T08:20:43.103Z,19.43
2022-11-20T08:25:50.822Z,22.50
2022-11-20T08:30:59.684Z,20.73
2022-11-20T08:36:03.913Z,23.87
2022-11-20T08:41:28.766Z,26.27
2022-11-20T08:46:37.872Z,25.17
2022-11-20T08:51:40.840Z,26.73
2022-11-20T08:56:43.091Z,26.27
2022-11-20T09:01:45.414Z,27.23
2022-11-20T09:06:51.700Z,26.03
2022-11-20T09:11:54.413Z,26.37
2022-11-20T09:16:57.864Z,26.17
2022-11-20T09:22:00.955Z,24.67
2022-11-20T09:27:05.335Z,26.20
2022-11-20T09:32:07.589Z,25.83
2022-11-20T09:37:09.848Z,25.07
2022-11-20T09:42:27.174Z,26.40
2022-11-20T09:47:55.728Z,25.37
2022-11-20T09:53:04.744Z,25.33
2022-11-20T09:58:13.912Z,28.23
2022-11-20T10:03:23.249Z,27.83
2022-11-20T10:08:32.736Z,25.93
2022-11-20T10:14:04.221Z,29.33
2022-11-20T10:19:41.432Z,29.13
2022-11-20T10:25:08.307Z,28.60
2022-11-20T10:30:14.298Z,32.10
2022-11-20T10:35:34.407Z,27.67
2022-11-20T10:40:41.898Z,33.47
2022-11-20T10:46:09.692Z,32.10
2022-11-20T10:51:38.173Z,31.57
2022-11-20T10:56:49.930Z,28.10
2022-11-20T11:01:52.755Z,28.80
2022-11-20T11:07:05.523Z,28.07
2022-11-20T11:12:12.283Z,24.93
2022-11-20T11:17:29.653Z,25.33
2022-11-20T11:22:35.417Z,23.70
2022-11-20T11:27:50.182Z,23.93
2022-11-20T11:33:04.183Z,24.63
2022-11-20T11:38:13.078Z,24.63
2022-11-20T11:43:43.374Z,26.40
2022-11-20T11:49:22.331Z,27.57
2022-11-20T11:54:30.866Z,26.47
2022-11-20T11:59:59.203Z,27.93
2022-11-20T12:05:24.396Z,30.00
2022-11-20T12:10:38.149Z,30.47
2022-11-20T12:15:45.556Z,30.13
2022-11-20T12:21:00.236Z,33.87
2022-11-20T12:26:09.170Z,35.30
2022-11-20T12:31:34.625Z,35.37
2022-11-20T12:36:47.891Z,36.20
2022-11-20T12:42:43.402Z,37.83
2022-11-20T12:47:57.016Z,36.23
2022-11-20T12:53:07.517Z,38.33
2022-11-20T12:58:34.792Z,34.27
2022-11-20T13:04:10.647Z,35.33
2022-11-20T13:09:16.252Z,34.37
2022-11-20T13:14:38.554Z,35.43
2022-11-20T13:19:41.333Z,35.63
2022-11-20T13:24:52.858Z,33.83
2022-11-20T13:30:18.208Z,32.27
2022-11-20T13:35:32.759Z,30.27
2022-11-20T13:40:38.477Z,31.33
2022-11-20T13:45:40.709Z,24.43
2022-11-20T13:51:05.064Z,18.20
2022-11-20T13:56:24.311Z,9.10
2022-11-20T14:01:32.307Z,8.10
2022-11-20T14:06:42.961Z,6.23
2022-11-20T14:11:48.768Z,4.27
2022-11-20T14:16:54.293Z,4.13
2022-11-20T14:22:18.668Z,5.43
2022-11-20T14:27:22.224Z,4.43
2022-11-20T14:32:29.452Z,5.13
2022-11-20T14:37:37.365Z,4.73
2022-11-20T14:42:44.807Z,4.43
2022-11-20T14:47:47.735Z,4.47
2022-11-20T14:53:01.454Z,6.63
2022-11-20T14:58:25.788Z,5.30
2022-11-20T15:03:34.706Z,7.03
2022-11-20T15:08:37.716Z,6.53
2022-11-20T15:13:41.417Z,5.17
2022-11-20T15:18:44.114Z,6.43
2022-11-20T15:23:46.591Z,7.27
2022-11-20T15:28:50.930Z,4.07
2022-11-20T15:33:53.401Z,4.37
2022-11-20T15:38:55.808Z,3.10
2022-11-20T15:43:58.171Z,2.20
2022-11-20T15:49:01.502Z,2.63
2022-11-20T15:54:16.797Z,6.20
2022-11-20T15:59:19.521Z,2.70
2022-11-20T16:04:22.391Z,3.10
2022-11-20T16:09:24.944Z,2.30
2022-11-20T16:15:00.035Z,2.27
2022-11-20T16:20:02.356Z,2.10
2022-11-20T16:25:05.194Z,2.33
2022-11-20T16:30:08.393Z,2.37
2022-11-20T16:35:10.663Z,2.10
2022-11-20T16:40:13.242Z,2.33
2022-11-20T16:45:21.527Z,2.77
2022-11-20T16:50:27.576Z,1.80
2022-11-20T16:55:29.988Z,1.43
2022-11-20T17:00:32.287Z,2.20
2022-11-20T17:05:35.650Z,1.40
2022-11-20T17:10:38.019Z,3.90
2022-11-20T17:15:40.385Z,3.13
2022-11-20T17:20:42.732Z,1.83
2022-11-20T17:25:45.268Z,3.37
2022-11-20T17:30:47.899Z,3.33
2022-11-20T17:35:50.311Z,3.47
2022-11-20T17:40:53.037Z,3.30
2022-11-20T17:45:56.469Z,3.97
2022-11-20T17:51:03.800Z,5.43
2022-11-20T17:56:25.359Z,5.37
2022-11-20T18:01:27.863Z,4.77
2022-11-20T18:06:30.958Z,7.97
2022-11-20T18:11:36.283Z,6.77
2022-11-20T18:16:44.424Z,7.97
2022-11-20T18:21:46.852Z,5.30
2022-11-20T18:26:49.218Z,8.93
2022-11-20T18:31:51.540Z,7.20
2022-11-20T18:36:54.268Z,7.30
2022-11-20T18:42:15.110Z,10.40
2022-11-20T18:47:23.854Z,7.90
2022-11-20T18:52:34.806Z,7.43
2022-11-20T18:57:37.180Z,8.37
2022-11-20T19:02:42.584Z,10.50
2022-11-20T19:07:45.694Z,12.00
2022-11-20T19:12:48.271Z,7.00
2022-11-20T19:17:51.915Z,7.70
2022-11-20T19:22:54.241Z,7.73
2022-11-20T19:27:56.555Z,11.20
2022-11-20T19:32:58.833Z,8.67
2022-11-20T19:38:05.355Z,9.80
2022-11-20T19:43:08.345Z,7.93
2022-11-20T19:48:10.805Z,8.90
2022-11-20T19:53:13.569Z,6.57
2022-11-20T19:58:16.150Z,7.27
2022-11-20T20:03:18.993Z,9.30
2022-11-20T20:08:21.273Z,6.77
2022-11-20T20:13:24.058Z,6.83
2022-11-20T20:18:26.377Z,5.83
2022-11-20T20:23:28.618Z,8.30
2022-11-20T20:28:33.430Z,5.17
2022-11-20T20:33:37.505Z,7.77
2022-11-20T20:38:42.290Z,8.90
2022-11-20T20:44:04.537Z,6.70
2022-11-20T20:49:07.743Z,6.40
2022-11-20T20:54:12.097Z,5.53
2022-11-20T20:59:14.445Z,6.33
2022-11-20T21:04:16.919Z,9.37
2022-11-20T21:09:20.254Z,8.43
2022-11-20T21:14:23.058Z,9.57
2022-11-20T21:19:25.633Z,9.03
2022-11-20T21:24:29.353Z,9.07
2022-11-20T21:29:31.857Z,9.87
2022-11-20T21:34:34.762Z,12.73
2022-11-20T21:39:50.385Z,13.43
2022-11-20T21:44:52.721Z,11.57
2022-11-20T21:49:55.013Z,13.07
2022-11-20T21:54:57.276Z,11.70
2022-11-20T22:00:00.191Z,11.47
2022-11-20T22:05:02.814Z,11.23
2022-11-20T22:10:13.110Z,12.77
2022-11-20T22:15:45.819Z,11.20
2022-11-20T22:20:45.541Z,13.53
2022-11-20T22:25:47.871Z,8.77
2022-11-20T22:30:50.206Z,10.20
2022-11-20T22:35:52.688Z,12.00
2022-11-20T22:41:00.874Z,13.90
2022-11-20T22:46:15.026Z,12.50
2022-11-20T22:51:19.903Z,12.13
2022-11-20T22:56:22.682Z,9.77
2022-11-20T23:01:33.062Z,12.63
2022-11-20T23:06:35.864Z,14.87
2022-11-20T23:11:38.676Z,13.53
2022-11-20T23:16:41.885Z,11.30
2022-11-20T23:21:44.344Z,12.90
2022-11-20T23:26:47.839Z,12.33
2022-11-20T23:31:50.182Z,13.10
2022-11-20T23:36:52.453Z,12.80
2022-11-20T23:41:54.777Z,13.93
2022-11-20T23:46:57.179Z,12.93
2022-11-20T23:51:59.600Z,10.00
2022-11-20T23:57:01.965Z,14.13
